createdAt,value
2023-02-05T00:01:06.104Z,0.93
2023-02-05T00:03:37.777Z,0.68
2023-02-05T00:06:09.022Z,0.73
2023-02-05T00:08:39.413Z,0.63
2023-02-05T00:11:11.331Z,0.68
2023-02-05T00:13:44.071Z,0.68
2023-02-05T00:16:17.354Z,0.70
2023-02-05T00:18:48.031Z,0.85
2023-02-05T00:21:19.780Z,0.57
2023-02-05T00:23:51.277Z,1.60
2023-02-05T00:26:21.778Z,0.40
2023-02-05T00:28:52.222Z,1.23
2023-02-05T00:31:24.008Z,0.60
2023-02-05T00:33:55.311Z,0.73
2023-02-05T00:36:26.357Z,0.70
2023-02-05T00:38:56.813Z,0.70
2023-02-05T00:41:27.345Z,0.40
2023-02-05T00:43:57.841Z,0.50
2023-02-05T00:46:28.102Z,0.47
2023-02-05T00:48:58.580Z,0.70
2023-02-05T00:51:28.802Z,0.50
2023-02-05T00:53:59.263Z,0.43
2023-02-05T00:56:29.478Z,0.80
2023-02-05T00:59:02.228Z,0.60
2023-02-05T01:01:33.025Z,0.35
2023-02-05T01:04:03.798Z,0.60
2023-02-05T01:06:34.376Z,0.52
2023-02-05T01:09:04.820Z,0.70
2023-02-05T01:11:48.964Z,0.40
2023-02-05T01:14:19.348Z,0.45
2023-02-05T01:16:49.759Z,0.73
2023-02-05T01:19:20.114Z,0.90
2023-02-05T01:22:00.691Z,0.55
2023-02-05T01:26:13.538Z,0.70
2023-02-05T01:27:35.942Z,0.60
2023-02-05T01:30:08.361Z,0.60
2023-02-05T01:32:38.662Z,0.73
2023-02-05T01:35:09.177Z,0.77
2023-02-05T01:37:39.426Z,0.70
2023-02-05T01:40:13.823Z,0.82
2023-02-05T01:42:52.652Z,1.30
2023-02-05T01:48:02.472Z,0.60
2023-02-05T01:50:44.235Z,0.85
2023-02-05T01:53:27.287Z,0.95
2023-02-05T01:56:04.354Z,0.52
2023-02-05T01:58:42.069Z,1.17
2023-02-05T02:01:12.536Z,0.60
2023-02-05T02:03:43.598Z,0.93
2023-02-05T02:06:13.965Z,0.50
2023-02-05T02:08:44.270Z,0.60
2023-02-05T02:11:19.025Z,0.47
2023-02-05T02:13:52.902Z,0.50
2023-02-05T02:16:23.822Z,0.40
2023-02-05T02:18:55.221Z,0.38
2023-02-05T02:21:28.741Z,0.52
2023-02-05T02:24:28.770Z,1.45
2023-02-05T02:27:15.858Z,0.50
2023-02-05T02:30:11.168Z,0.30
2023-02-05T02:32:48.752Z,0.30
2023-02-05T02:35:28.239Z,0.47
2023-02-05T02:38:29.780Z,0.47
2023-02-05T02:41:16.028Z,0.40
2023-02-05T02:44:01.427Z,0.35
2023-02-05T02:46:48.446Z,0.45
2023-02-05T02:49:33.238Z,0.63
2023-02-05T02:52:07.874Z,0.40
2023-02-05T02:54:42.461Z,0.40
2023-02-05T02:57:14.106Z,0.35
2023-02-05T02:59:47.623Z,0.50
2023-02-05T03:02:19.180Z,0.60
2023-02-05T03:04:56.421Z,0.40
2023-02-05T03:07:41.052Z,0.75
2023-02-05T03:10:31.030Z,0.50
2023-02-05T03:13:01.268Z,0.32
2023-02-05T03:15:32.005Z,0.40
2023-02-05T03:18:02.604Z,0.40
2023-02-05T03:20:38.194Z,0.30
2023-02-05T03:23:08.557Z,0.60
2023-02-05T03:25:38.982Z,0.30
2023-02-05T03:28:09.333Z,0.30
2023-02-05T03:30:59.191Z,0.47
2023-02-05T03:34:05.411Z,0.50
2023-02-05T03:36:50.136Z,0.40
2023-02-05T03:39:21.252Z,0.50
2023-02-05T03:42:09.429Z,0.40
2023-02-05T03:45:09.986Z,0.40
2023-02-05T03:48:09.448Z,0.28
2023-02-05T03:51:04.278Z,0.40
2023-02-05T03:53:46.772Z,0.50
2023-02-05T03:56:41.111Z,0.30
2023-02-05T03:59:13.626Z,0.40
2023-02-05T04:01:46.259Z,0.50
2023-02-05T04:04:16.746Z,0.50
2023-02-05T04:06:52.604Z,0.30
2023-02-05T04:09:23.171Z,0.75
2023-02-05T04:11:53.404Z,0.40
2023-02-05T04:14:23.707Z,0.50
2023-02-05T04:16:53.957Z,0.30
2023-02-05T04:19:24.273Z,0.50
2023-02-05T04:21:54.499Z,0.40
2023-02-05T04:24:24.810Z,0.30
2023-02-05T04:26:55.073Z,0.60
2023-02-05T04:29:25.434Z,0.40
2023-02-05T04:31:55.716Z,0.40
2023-02-05T04:34:26.010Z,0.40
2023-02-05T04:36:56.245Z,0.70
2023-02-05T04:39:26.453Z,0.35
2023-02-05T04:41:56.703Z,0.52
2023-02-05T04:44:27.329Z,0.47
2023-02-05T04:46:57.558Z,0.40
2023-02-05T04:49:27.980Z,0.43
2023-02-05T04:51:58.199Z,0.55
2023-02-05T04:54:29.973Z,0.40
2023-02-05T04:57:00.238Z,0.40
2023-02-05T04:59:31.968Z,0.40
2023-02-05T05:02:02.420Z,0.40
2023-02-05T05:04:32.739Z,0.40
2023-02-05T05:07:03.022Z,0.45
2023-02-05T05:09:33.299Z,0.35
2023-02-05T05:12:03.634Z,0.40
2023-02-05T05:14:33.917Z,0.35
2023-02-05T05:17:04.158Z,0.68
2023-02-05T05:19:34.479Z,0.45
2023-02-05T05:22:04.811Z,0.30
2023-02-05T05:24:35.094Z,0.40
2023-02-05T05:27:05.340Z,0.55
2023-02-05T05:29:35.708Z,0.40
2023-02-05T05:32:06.354Z,0.55
2023-02-05T05:34:36.626Z,0.60
2023-02-05T05:37:06.924Z,0.43
2023-02-05T05:39:54.895Z,0.50
2023-02-05T05:42:42.878Z,0.40
2023-02-05T05:45:13.605Z,0.30
2023-02-05T05:47:43.823Z,0.43
2023-02-05T05:50:14.114Z,0.40
2023-02-05T05:52:44.349Z,0.50
2023-02-05T05:55:14.581Z,0.77
2023-02-05T05:57:44.822Z,0.40
2023-02-05T06:00:16.108Z,0.32
2023-02-05T06:02:46.731Z,0.35
2023-02-05T06:05:17.080Z,0.50
2023-02-05T06:07:47.311Z,0.45
2023-02-05T06:10:17.767Z,2.10
2023-02-05T06:12:48.080Z,3.55
2023-02-05T06:15:18.542Z,0.98
2023-02-05T06:17:49.888Z,2.08
2023-02-05T06:20:20.516Z,1.25
2023-02-05T06:22:51.316Z,0.80
2023-02-05T06:25:21.985Z,0.50
2023-02-05T06:27:52.499Z,0.22
2023-02-05T06:30:22.949Z,0.55
2023-02-05T06:32:53.340Z,0.30
2023-02-05T06:35:23.636Z,0.40
2023-02-05T06:37:54.126Z,0.50
2023-02-05T06:40:27.466Z,0.20
2023-02-05T06:42:58.239Z,0.30
2023-02-05T06:45:28.453Z,0.50
2023-02-05T06:47:59.488Z,0.20
2023-02-05T06:50:29.820Z,0.50
2023-02-05T06:53:00.397Z,0.30
2023-02-05T06:55:30.705Z,0.30
2023-02-05T06:58:01.220Z,0.20
2023-02-05T07:00:32.483Z,0.40
2023-02-05T07:03:03.237Z,0.20
2023-02-05T07:05:35.184Z,0.93
2023-02-05T07:08:07.422Z,0.28
2023-02-05T07:10:37.729Z,0.10
2023-02-05T07:13:08.018Z,0.60
2023-02-05T07:15:41.300Z,0.25
2023-02-05T07:18:11.910Z,0.55
2023-02-05T07:20:42.216Z,0.45
2023-02-05T07:23:12.802Z,0.22
2023-02-05T07:25:43.081Z,0.30
2023-02-05T07:28:13.445Z,0.40
2023-02-05T07:30:43.916Z,0.30
2023-02-05T07:33:14.213Z,0.20
2023-02-05T07:35:44.604Z,0.28
2023-02-05T07:38:26.093Z,0.32
2023-02-05T07:40:56.294Z,0.10
2023-02-05T07:43:27.030Z,0.20
2023-02-05T07:46:01.382Z,0.20
2023-02-05T07:48:31.696Z,0.20
2023-02-05T07:51:02.681Z,0.30
2023-02-05T07:53:33.027Z,0.50
2023-02-05T07:56:07.149Z,0.20
2023-02-05T07:58:49.530Z,0.20
2023-02-05T08:01:28.820Z,0.22
2023-02-05T08:04:02.555Z,0.30
2023-02-05T08:06:35.740Z,0.15
2023-02-05T08:09:08.090Z,0.30
2023-02-05T08:11:39.800Z,0.40
2023-02-05T08:14:10.988Z,0.20
2023-02-05T08:16:42.194Z,0.22
2023-02-05T08:19:18.478Z,0.20
2023-02-05T08:21:49.793Z,0.28
2023-02-05T08:24:21.612Z,0.40
2023-02-05T08:26:52.251Z,0.20
2023-02-05T08:29:24.154Z,0.30
2023-02-05T08:31:55.652Z,0.20
2023-02-05T08:34:27.457Z,0.30
2023-02-05T08:36:59.510Z,0.38
2023-02-05T08:39:30.055Z,0.47
2023-02-05T08:42:02.116Z,0.30
2023-02-05T08:44:34.562Z,0.40
2023-02-05T08:47:05.575Z,0.30
2023-02-05T08:49:38.231Z,0.20
2023-02-05T08:52:09.691Z,0.20
2023-02-05T08:54:41.305Z,0.52
2023-02-05T08:57:14.495Z,0.45
2023-02-05T08:59:45.629Z,0.80
2023-02-05T09:02:19.418Z,0.40
2023-02-05T09:04:52.790Z,0.20
2023-02-05T09:07:26.989Z,0.20
2023-02-05T09:09:57.385Z,0.30
2023-02-05T09:12:27.764Z,0.30
2023-02-05T09:14:58.135Z,0.20
2023-02-05T09:17:29.444Z,0.30
2023-02-05T09:19:59.895Z,0.30
2023-02-05T09:22:30.788Z,0.20
2023-02-05T09:25:01.232Z,0.40
2023-02-05T09:27:32.185Z,0.10
2023-02-05T09:30:02.524Z,0.30
2023-02-05T09:32:32.851Z,0.30
2023-02-05T09:35:03.085Z,0.30
2023-02-05T09:37:33.586Z,0.20
2023-02-05T09:40:21.305Z,0.98
2023-02-05T09:43:25.481Z,0.28
2023-02-05T09:46:12.133Z,0.40
2023-02-05T09:48:51.226Z,1.00
2023-02-05T09:51:37.321Z,0.60
2023-02-05T09:54:44.210Z,0.60
2023-02-05T09:57:22.610Z,1.10
2023-02-05T09:59:54.100Z,1.20
2023-02-05T10:02:30.970Z,1.27
2023-02-05T10:05:03.002Z,1.00
2023-02-05T10:07:39.182Z,1.38
2023-02-05T10:10:17.925Z,1.98
2023-02-05T10:13:14.821Z,1.95
2023-02-05T10:16:15.788Z,1.50
2023-02-05T10:19:16.906Z,0.90
2023-02-05T10:22:13.727Z,1.40
2023-02-05T10:25:17.663Z,1.08
2023-02-05T10:28:06.235Z,0.80
2023-02-05T10:30:59.972Z,1.42
2023-02-05T10:34:03.398Z,1.35
2023-02-05T10:36:34.718Z,1.95
2023-02-05T10:39:14.064Z,1.67
2023-02-05T10:42:26.909Z,1.10
2023-02-05T10:45:28.109Z,1.55
2023-02-05T10:48:39.356Z,0.70
2023-02-05T10:51:20.241Z,2.03
2023-02-05T10:53:50.489Z,1.88
2023-02-05T10:56:22.180Z,1.42
2023-02-05T10:59:00.409Z,1.15
2023-02-05T11:01:40.095Z,1.25
2023-02-05T11:04:40.385Z,1.10
2023-02-05T11:07:16.522Z,1.10
2023-02-05T11:09:47.848Z,1.35
2023-02-05T11:12:39.092Z,1.20
2023-02-05T11:15:25.705Z,1.55
2023-02-05T11:18:02.561Z,1.98
2023-02-05T11:20:39.634Z,1.05
2023-02-05T11:23:24.135Z,1.10
2023-02-05T11:26:03.335Z,1.45
2023-02-05T11:28:42.950Z,0.98
2023-02-05T11:31:30.029Z,1.42
2023-02-05T11:36:55.818Z,1.23
2023-02-05T11:39:38.443Z,1.40
2023-02-05T11:42:20.757Z,1.38
2023-02-05T11:45:01.124Z,1.42
2023-02-05T11:47:41.472Z,1.30
2023-02-05T11:50:28.422Z,1.30
2023-02-05T11:53:08.604Z,1.70
2023-02-05T11:55:39.363Z,1.52
2023-02-05T11:58:35.849Z,1.10
2023-02-05T12:01:23.665Z,1.60
2023-02-05T12:04:13.794Z,1.35
2023-02-05T12:07:19.213Z,0.80
2023-02-05T12:09:50.173Z,1.50
2023-02-05T12:13:09.915Z,1.35
2023-02-05T12:15:56.038Z,1.15
2023-02-05T12:18:56.499Z,1.15
2023-02-05T12:21:33.389Z,1.30
2023-02-05T12:24:21.808Z,1.08
2023-02-05T12:26:59.054Z,1.42
2023-02-05T12:30:04.483Z,1.35
2023-02-05T12:32:51.792Z,2.10
2023-02-05T12:35:24.831Z,1.27
2023-02-05T12:38:03.870Z,0.90
2023-02-05T12:40:42.902Z,1.10
2023-02-05T12:43:40.477Z,1.05
2023-02-05T12:46:34.506Z,1.02
2023-02-05T12:49:14.873Z,1.65
2023-02-05T12:52:12.578Z,1.00
2023-02-05T12:55:21.919Z,1.13
2023-02-05T12:58:15.588Z,1.02
2023-02-05T13:00:52.161Z,1.25
2023-02-05T13:03:28.199Z,1.65
2023-02-05T13:06:18.768Z,1.20
2023-02-05T13:09:02.229Z,1.13
2023-02-05T13:11:53.505Z,1.23
2023-02-05T13:14:39.151Z,1.35
2023-02-05T13:17:44.429Z,1.60
2023-02-05T13:20:46.008Z,1.13
2023-02-05T13:23:35.855Z,1.10
2023-02-05T13:26:18.499Z,2.05
2023-02-05T13:29:00.507Z,1.25
2023-02-05T13:31:50.718Z,0.98
2023-02-05T13:34:21.774Z,1.00
2023-02-05T13:37:07.229Z,1.27
2023-02-05T13:39:52.786Z,1.50
2023-02-05T13:42:23.083Z,1.25
2023-02-05T13:44:59.182Z,1.00
2023-02-05T13:47:29.493Z,1.92
2023-02-05T13:50:20.527Z,1.63
2023-02-05T13:52:56.394Z,1.05
2023-02-05T13:55:39.124Z,1.98
2023-02-05T13:58:24.139Z,1.77
2023-02-05T14:01:27.436Z,1.60
2023-02-05T14:04:09.272Z,0.90
2023-02-05T14:06:42.297Z,1.65
2023-02-05T14:09:44.222Z,1.38
2023-02-05T14:12:24.642Z,1.13
2023-02-05T14:15:25.095Z,0.80
2023-02-05T14:17:57.516Z,1.08
2023-02-05T14:20:27.880Z,2.20
2023-02-05T14:23:02.776Z,1.23
2023-02-05T14:25:44.870Z,1.50
2023-02-05T14:28:33.115Z,0.90
2023-02-05T14:31:09.223Z,1.58
2023-02-05T14:33:46.663Z,2.03
2023-02-05T14:36:19.832Z,1.70
2023-02-05T14:39:07.970Z,1.08
2023-02-05T14:41:46.092Z,1.83
2023-02-05T14:44:22.984Z,1.45
2023-02-05T14:47:02.647Z,0.98
2023-02-05T14:49:36.156Z,2.17
2023-02-05T14:52:18.948Z,1.60
2023-02-05T14:54:58.903Z,1.88
2023-02-05T14:57:49.316Z,1.30
2023-02-05T15:00:27.451Z,1.10
2023-02-05T15:03:11.154Z,1.52
2023-02-05T15:05:52.912Z,1.17
2023-02-05T15:08:50.192Z,1.60
2023-02-05T15:11:29.782Z,1.75
2023-02-05T15:14:21.825Z,1.85
2023-02-05T15:17:12.407Z,1.67
2023-02-05T15:19:57.793Z,1.58
2023-02-05T15:22:42.673Z,1.80
2023-02-05T15:25:26.366Z,1.40
2023-02-05T15:28:07.526Z,1.30
2023-02-05T15:30:59.384Z,1.55
2023-02-05T15:34:12.439Z,1.38
2023-02-05T15:37:09.388Z,1.50
2023-02-05T15:39:53.234Z,1.55
2023-02-05T15:42:32.772Z,1.83
2023-02-05T15:45:28.122Z,1.48
2023-02-05T15:48:15.991Z,1.15
2023-02-05T15:51:00.313Z,2.13
2023-02-05T15:53:51.563Z,1.95
2023-02-05T15:56:31.227Z,1.73
2023-02-05T15:59:12.418Z,1.60
2023-02-05T16:02:03.177Z,1.55
2023-02-05T16:04:37.080Z,1.52
2023-02-05T16:07:22.300Z,1.30
2023-02-05T16:09:55.938Z,1.45
2023-02-05T16:12:26.554Z,2.30
2023-02-05T16:15:04.444Z,1.65
2023-02-05T16:17:42.921Z,1.48
2023-02-05T16:20:37.868Z,2.08
2023-02-05T16:23:15.084Z,1.50
2023-02-05T16:26:16.773Z,1.70
2023-02-05T16:28:57.567Z,1.95
2023-02-05T16:31:30.356Z,1.52
2023-02-05T16:34:03.807Z,2.42
2023-02-05T16:36:54.148Z,1.50
2023-02-05T16:39:30.542Z,1.92
2023-02-05T16:42:16.826Z,1.40
2023-02-05T16:44:51.148Z,1.70
2023-02-05T16:47:22.853Z,2.10
2023-02-05T16:49:53.907Z,1.75
2023-02-05T16:52:27.862Z,2.65
2023-02-05T16:54:58.497Z,2.55
2023-02-05T16:57:32.020Z,1.90
2023-02-05T17:00:10.241Z,1.70
2023-02-05T17:02:43.268Z,1.40
2023-02-05T17:05:26.835Z,1.77
2023-02-05T17:08:03.532Z,1.65
2023-02-05T17:13:08.076Z,1.92
2023-02-05T17:15:42.845Z,1.55
2023-02-05T17:18:30.523Z,1.60
2023-02-05T17:21:37.005Z,1.60
2023-02-05T17:24:11.427Z,1.45
2023-02-05T17:26:44.632Z,1.83
2023-02-05T17:29:18.479Z,1.77
2023-02-05T17:31:48.808Z,1.60
2023-02-05T17:34:19.139Z,1.50
2023-02-05T17:36:49.748Z,1.73
2023-02-05T17:39:19.944Z,1.30
2023-02-05T17:42:08.318Z,1.70
2023-02-05T17:44:39.258Z,2.17
2023-02-05T17:47:10.812Z,1.63
2023-02-05T17:49:41.067Z,1.33
2023-02-05T17:52:12.596Z,1.40
2023-02-05T17:54:43.253Z,2.33
2023-02-05T17:57:23.645Z,1.75
2023-02-05T17:59:54.094Z,1.25
2023-02-05T18:02:25.924Z,2.92
2023-02-05T18:04:56.302Z,1.52
2023-02-05T18:07:45.270Z,2.05
2023-02-05T18:10:18.725Z,1.75
2023-02-05T18:12:49.304Z,2.10
2023-02-05T18:15:19.734Z,1.52
2023-02-05T18:17:50.265Z,1.58
2023-02-05T18:20:22.687Z,2.97
2023-02-05T18:22:53.126Z,1.40
2023-02-05T18:25:29.068Z,1.95
2023-02-05T18:27:59.742Z,1.75
2023-02-05T18:30:31.402Z,1.45
2023-02-05T18:33:01.927Z,1.80
2023-02-05T18:35:32.323Z,1.45
2023-02-05T18:38:02.656Z,1.35
2023-02-05T18:40:33.271Z,1.63
2023-02-05T18:43:04.268Z,1.75
2023-02-05T18:45:34.516Z,1.80
2023-02-05T18:48:05.468Z,1.80
2023-02-05T18:50:35.982Z,1.60
2023-02-05T18:53:06.516Z,2.10
2023-02-05T18:55:37.457Z,1.45
2023-02-05T18:58:08.064Z,2.55
2023-02-05T19:00:38.330Z,1.27
2023-02-05T19:03:08.572Z,1.83
2023-02-05T19:05:38.898Z,1.70
2023-02-05T19:08:09.605Z,1.27
2023-02-05T19:10:40.198Z,1.70
2023-02-05T19:13:10.891Z,1.42
2023-02-05T19:15:41.125Z,2.13
2023-02-05T19:18:11.485Z,1.40
2023-02-05T19:20:41.727Z,1.40
2023-02-05T19:23:12.129Z,1.92
2023-02-05T19:25:42.455Z,2.20
2023-02-05T19:28:12.693Z,1.85
2023-02-05T19:30:43.343Z,2.00
2023-02-05T19:33:14.296Z,2.60
2023-02-05T19:35:44.616Z,1.60
2023-02-05T19:38:15.546Z,1.67
2023-02-05T19:40:45.755Z,2.20
2023-02-05T19:43:19.428Z,1.70
2023-02-05T19:45:50.553Z,1.77
2023-02-05T19:48:20.770Z,1.85
2023-02-05T19:50:51.046Z,1.80
2023-02-05T19:53:22.928Z,1.77
2023-02-05T19:55:53.212Z,2.03
2023-02-05T19:58:23.511Z,1.88
2023-02-05T20:00:53.749Z,1.50
2023-02-05T20:03:23.962Z,2.25
2023-02-05T20:05:54.186Z,2.08
2023-02-05T20:08:28.422Z,1.83
2023-02-05T20:11:03.628Z,1.92
2023-02-05T20:13:35.866Z,1.77
2023-02-05T20:16:09.811Z,2.83
2023-02-05T20:18:41.430Z,1.88
2023-02-05T20:21:14.316Z,1.45
2023-02-05T20:23:44.858Z,2.72
2023-02-05T20:26:20.383Z,2.40
2023-02-05T20:29:11.683Z,2.20
2023-02-05T20:31:45.114Z,1.60
2023-02-05T20:34:24.251Z,2.13
2023-02-05T20:37:00.216Z,1.77
2023-02-05T20:39:32.463Z,1.77
2023-02-05T20:42:03.070Z,1.80
2023-02-05T20:44:35.974Z,1.75
2023-02-05T20:47:09.396Z,1.83
2023-02-05T20:49:41.909Z,1.27
2023-02-05T20:52:13.462Z,1.50
2023-02-05T20:54:44.360Z,2.50
2023-02-05T20:57:15.429Z,2.22
2023-02-05T20:59:45.679Z,1.50
2023-02-05T21:02:15.957Z,1.88
2023-02-05T21:04:46.227Z,1.30
2023-02-05T21:07:16.487Z,1.45
2023-02-05T21:09:47.247Z,2.03
2023-02-05T21:12:17.512Z,1.60
2023-02-05T21:14:47.764Z,1.30
2023-02-05T21:17:19.181Z,1.40
2023-02-05T21:19:49.443Z,1.33
2023-02-05T21:22:19.753Z,1.15
2023-02-05T21:24:50.009Z,2.17
2023-02-05T21:27:23.881Z,2.47
2023-02-05T21:29:54.618Z,1.20
2023-02-05T21:32:24.833Z,2.17
2023-02-05T21:34:55.527Z,0.98
2023-02-05T21:37:25.846Z,1.50
2023-02-05T21:40:08.487Z,1.10
2023-02-05T21:42:39.937Z,1.40
2023-02-05T21:45:11.097Z,1.02
2023-02-05T21:47:41.553Z,1.33
2023-02-05T21:50:12.109Z,1.17
2023-02-05T21:52:42.648Z,1.05
2023-02-05T21:55:14.173Z,1.20
2023-02-05T21:57:44.443Z,1.00
2023-02-05T22:00:15.304Z,1.27
2023-02-05T22:02:46.545Z,1.33
2023-02-05T22:05:16.850Z,1.77
2023-02-05T22:07:47.171Z,1.48
2023-02-05T22:10:17.831Z,1.25
2023-02-05T22:12:48.298Z,1.23
2023-02-05T22:15:18.546Z,1.08
2023-02-05T22:17:48.849Z,1.20
2023-02-05T22:20:19.213Z,1.08
2023-02-05T22:22:49.713Z,0.90
2023-02-05T22:25:20.035Z,1.83
2023-02-05T22:27:50.501Z,1.33
2023-02-05T22:30:20.968Z,2.05
2023-02-05T22:32:52.023Z,1.92
2023-02-05T22:35:22.248Z,1.30
2023-02-05T22:37:52.815Z,0.95
2023-02-05T22:40:23.072Z,1.27
2023-02-05T22:42:53.377Z,1.20
2023-02-05T22:45:23.681Z,1.20
2023-02-05T22:47:54.022Z,1.00
2023-02-05T22:50:24.356Z,0.70
2023-02-05T22:52:54.723Z,0.95
2023-02-05T22:55:24.938Z,0.82
2023-02-05T22:57:55.142Z,1.13
2023-02-05T23:00:25.857Z,0.90
2023-02-05T23:02:58.047Z,1.45
2023-02-05T23:05:33.249Z,0.95
2023-02-05T23:08:03.728Z,1.08
2023-02-05T23:10:34.011Z,1.42
2023-02-05T23:13:04.737Z,1.30
2023-02-05T23:15:35.433Z,1.10
2023-02-05T23:18:05.892Z,1.15
2023-02-05T23:20:36.345Z,1.38
2023-02-05T23:23:07.856Z,1.45
2023-02-05T23:25:39.174Z,0.88
2023-02-05T23:28:09.526Z,0.88
2023-02-05T23:30:39.922Z,1.00
2023-02-05T23:33:10.259Z,1.10
2023-02-05T23:35:42.764Z,1.23
2023-02-05T23:38:13.272Z,1.10
2023-02-05T23:40:43.658Z,1.58
2023-02-05T23:43:14.445Z,1.10
2023-02-05T23:45:45.661Z,1.00
2023-02-05T23:48:16.298Z,1.30
2023-02-05T23:50:47.520Z,1.42
2023-02-05T23:53:18.162Z,1.60
2023-02-05T23:55:49.193Z,1.52
2023-02-05T23:58:21.839Z,0.90
